createdAt,value
2023-02-18T00:12:05.575Z,94337.16
2023-02-18T00:27:07.574Z,94317.66
2023-02-18T00:42:09.224Z,94298.59
2023-02-18T00:57:10.722Z,94311.16
2023-02-18T01:12:15.415Z,94300.09
2023-02-18T01:27:17.001Z,94284.84
2023-02-18T01:42:24.038Z,94305.38
2023-02-18T01:57:28.035Z,94287.06
2023-02-18T02:12:35.630Z,94302.31
2023-02-18T02:27:40.190Z,94281.72
2023-02-18T02:42:58.304Z,94287.03
2023-02-18T02:57:59.874Z,94280.19
2023-02-18T03:13:07.934Z,94311.47
2023-02-18T03:28:12.367Z,94280.13
2023-02-18T03:43:13.883Z,94327.47
2023-02-18T03:58:15.449Z,94351.13
2023-02-18T04:13:19.740Z,94322.50
2023-02-18T04:28:21.301Z,94307.59
2023-02-18T04:43:22.810Z,94298.00
2023-02-18T04:58:24.333Z,94305.25
2023-02-18T05:13:25.810Z,94362.09
2023-02-18T05:28:27.333Z,94306.38
2023-02-18T05:43:28.848Z,94302.56
2023-02-18T05:58:30.386Z,94331.97
2023-02-18T06:13:31.930Z,93966.72
2023-02-18T06:28:33.507Z,94329.84
2023-02-18T06:43:35.420Z,94318.75
2023-02-18T06:58:37.135Z,94322.16
2023-02-18T07:13:38.678Z,94322.56
2023-02-18T07:28:41.242Z,94298.94
2023-02-18T07:43:42.746Z,94334.44
2023-02-18T07:58:44.239Z,94350.88
2023-02-18T08:13:47.164Z,94345.94
2023-02-18T08:28:48.982Z,94315.03
2023-02-18T08:43:50.604Z,94300.91
2023-02-18T08:58:52.156Z,94328.78
2023-02-18T09:13:53.712Z,94335.31
2023-02-18T09:28:56.554Z,94320.44
2023-02-18T09:44:03.217Z,94291.06
2023-02-18T09:59:06.237Z,94293.00
2023-02-18T10:14:14.636Z,94289.59
2023-02-18T10:29:21.278Z,94284.63
2023-02-18T10:44:29.832Z,94266.69
2023-02-18T10:59:34.471Z,94237.72
2023-02-18T11:14:38.251Z,94216.69
2023-02-18T11:45:46.852Z,94157.47
2023-02-18T13:39:30.371Z,94059.59
2023-02-18T13:54:35.889Z,94050.81
2023-02-18T14:09:40.836Z,94048.91
2023-02-18T14:24:49.484Z,94057.31
2023-02-18T14:40:09.520Z,94063.03
2023-02-18T14:55:23.373Z,94052.72
2023-02-18T15:10:45.767Z,94053.47
2023-02-18T15:25:50.382Z,94044.28
2023-02-18T15:40:52.952Z,94027.47
2023-02-18T15:55:54.837Z,94006.84
2023-02-18T16:10:58.348Z,94001.50
2023-02-18T16:26:09.965Z,94008.75
2023-02-18T16:41:13.490Z,94001.88
2023-02-18T16:56:16.325Z,94011.44
2023-02-18T17:11:38.124Z,94016.78
2023-02-18T17:26:39.612Z,94022.13
2023-02-18T17:41:41.880Z,94022.13
2023-02-18T17:56:43.783Z,94013.72
2023-02-18T18:11:45.358Z,94008.78
2023-02-18T18:26:46.894Z,94013.34
2023-02-18T18:41:48.444Z,94016.41
2023-02-18T18:56:50.356Z,94010.69
2023-02-18T19:11:51.903Z,93969.41
2023-02-18T19:26:53.490Z,93982.41
2023-02-18T19:41:55.120Z,94008.41
2023-02-18T19:56:56.929Z,94018.34
2023-02-18T20:11:58.474Z,94006.88
2023-02-18T20:27:02.575Z,94011.09
2023-02-18T20:42:15.448Z,94009.56
2023-02-18T20:57:18.047Z,93996.94
2023-02-18T21:12:19.708Z,93996.56
2023-02-18T21:27:21.375Z,93984.34
2023-02-18T21:42:22.904Z,93969.44
2023-02-18T21:57:24.844Z,93965.63
2023-02-18T22:12:26.487Z,93942.72
2023-02-18T22:27:28.020Z,93951.13
2023-02-18T22:42:29.587Z,93959.13
2023-02-18T22:57:31.142Z,93943.47
2023-02-18T23:12:32.663Z,93929.72
2023-02-18T23:27:34.183Z,93936.22
2023-02-18T23:42:35.765Z,93928.94
2023-02-18T23:57:37.330Z,93913.69
